createdAt,value
2019-05-20T00:00:31.402Z,1005.60
2019-05-20T00:01:31.419Z,1005.59
2019-05-20T00:02:31.439Z,1005.63
2019-05-20T00:03:31.461Z,1005.65
2019-05-20T00:04:31.484Z,1005.67
2019-05-20T00:05:31.524Z,1005.72
2019-05-20T00:06:31.532Z,1005.78
2019-05-20T00:07:31.549Z,1005.77
2019-05-20T00:08:31.569Z,1005.76
2019-05-20T00:09:31.641Z,1005.83
2019-05-20T00:10:31.615Z,1005.81
2019-05-20T00:11:31.637Z,1005.81
2019-05-20T00:12:31.656Z,1005.82
2019-05-20T00:13:31.678Z,1005.84
2019-05-20T00:14:31.697Z,1005.86
2019-05-20T00:15:31.718Z,1005.85
2019-05-20T00:16:31.739Z,1005.89
2019-05-20T00:17:31.776Z,1005.90
2019-05-20T00:18:31.781Z,1005.90
2019-05-20T00:19:31.808Z,1005.91
2019-05-20T00:20:31.829Z,1005.90
2019-05-20T00:21:31.879Z,1005.88
2019-05-20T00:22:31.870Z,1005.86
2019-05-20T00:23:31.910Z,1005.90
2019-05-20T00:24:31.910Z,1005.93
2019-05-20T00:25:31.950Z,1005.89
2019-05-20T00:26:31.953Z,1005.99
2019-05-20T00:27:31.985Z,1006.03
2019-05-20T00:28:31.994Z,1005.99
2019-05-20T00:29:32.019Z,1006.03
2019-05-20T00:30:32.039Z,1006.04
2019-05-20T00:31:32.062Z,1006.01
2019-05-20T00:32:40.607Z,1006.03
2019-05-20T00:33:32.102Z,1006.02
2019-05-20T00:34:35.167Z,1006.04
2019-05-20T00:35:32.155Z,1006.05
2019-05-20T00:36:32.167Z,1006.01
2019-05-20T00:37:32.187Z,1006.07
2019-05-20T00:38:32.212Z,1006.06
2019-05-20T00:39:32.234Z,1006.07
2019-05-20T00:40:32.254Z,1006.07
2019-05-20T00:41:32.273Z,1006.06
2019-05-20T00:42:32.297Z,1006.07
2019-05-20T00:43:32.327Z,1006.09
2019-05-20T00:44:32.338Z,1006.07
2019-05-20T00:45:32.360Z,1006.09
2019-05-20T00:46:32.385Z,1006.10
2019-05-20T00:47:32.408Z,1006.11
2019-05-20T00:48:32.423Z,1006.12
2019-05-20T00:49:32.448Z,1006.16
2019-05-20T00:50:32.527Z,1006.18
2019-05-20T00:51:32.493Z,1006.18
2019-05-20T00:52:32.515Z,1006.22
2019-05-20T00:53:32.535Z,1006.16
2019-05-20T00:54:32.554Z,1006.20
2019-05-20T00:55:32.583Z,1006.21
2019-05-20T00:56:32.597Z,1006.25
2019-05-20T00:57:32.621Z,1006.27
2019-05-20T00:58:32.651Z,1006.26
2019-05-20T00:59:32.662Z,1006.27
2019-05-20T01:00:32.683Z,1006.29
2019-05-20T01:01:32.705Z,1006.29
2019-05-20T01:02:32.727Z,1006.33
2019-05-20T01:03:32.748Z,1006.31
2019-05-20T01:04:32.770Z,1006.31
2019-05-20T01:05:32.792Z,1006.28
2019-05-20T01:06:32.812Z,1006.28
2019-05-20T01:07:32.840Z,1006.31
2019-05-20T01:08:32.901Z,1006.27
2019-05-20T01:09:32.880Z,1006.28
2019-05-20T01:10:32.899Z,1006.28
2019-05-20T01:11:32.921Z,1006.27
2019-05-20T01:12:32.944Z,1006.31
2019-05-20T01:13:32.966Z,1006.29
2019-05-20T01:14:32.992Z,1006.30
2019-05-20T01:15:33.056Z,1006.28
2019-05-20T01:16:33.109Z,1006.30
2019-05-20T01:17:33.050Z,1006.30
2019-05-20T01:18:33.262Z,1006.29
2019-05-20T01:19:33.152Z,1006.33
2019-05-20T01:20:33.116Z,1006.31
2019-05-20T01:21:33.135Z,1006.31
2019-05-20T01:22:33.175Z,1006.33
2019-05-20T01:23:33.181Z,1006.35
2019-05-20T01:24:33.210Z,1006.31
2019-05-20T01:25:33.224Z,1006.34
2019-05-20T01:26:33.246Z,1006.31
2019-05-20T01:27:33.269Z,1006.36
2019-05-20T01:28:33.328Z,1006.32
2019-05-20T01:29:33.315Z,1006.31
2019-05-20T01:30:33.330Z,1006.33
2019-05-20T01:31:33.351Z,1006.35
2019-05-20T01:32:33.373Z,1006.37
2019-05-20T01:33:33.395Z,1006.38
2019-05-20T01:34:33.417Z,1006.42
2019-05-20T01:35:33.440Z,1006.43
2019-05-20T01:36:33.467Z,1006.46
2019-05-20T01:37:33.482Z,1006.47
2019-05-20T01:38:33.506Z,1006.49
2019-05-20T01:39:33.531Z,1006.47
2019-05-20T01:40:33.546Z,1006.47
2019-05-20T01:41:33.574Z,1006.47
2019-05-20T01:42:33.592Z,1006.50
2019-05-20T01:43:33.612Z,1006.50
2019-05-20T01:44:33.632Z,1006.52
2019-05-20T01:45:33.656Z,1006.56
2019-05-20T01:46:33.678Z,1006.54
2019-05-20T01:47:33.698Z,1006.57
2019-05-20T01:48:33.719Z,1006.58
2019-05-20T01:49:33.744Z,1006.61
2019-05-20T01:50:33.766Z,1006.62
2019-05-20T01:51:33.789Z,1006.64
2019-05-20T01:52:33.812Z,1006.65
2019-05-20T01:53:33.829Z,1006.64
2019-05-20T01:54:33.853Z,1006.65
2019-05-20T01:55:33.874Z,1006.67
2019-05-20T01:56:33.898Z,1006.67
2019-05-20T01:57:33.923Z,1006.70
2019-05-20T01:58:33.943Z,1006.70
2019-05-20T01:59:33.961Z,1006.70
2019-05-20T02:00:33.983Z,1006.74
2019-05-20T02:01:34.038Z,1006.73
2019-05-20T02:02:34.027Z,1006.74
2019-05-20T02:03:34.050Z,1006.71
2019-05-20T02:04:34.069Z,1006.75
2019-05-20T02:05:34.092Z,1006.75
2019-05-20T02:06:34.561Z,1006.77
2019-05-20T02:07:34.139Z,1006.75
2019-05-20T02:08:34.206Z,1006.79
2019-05-20T02:09:34.181Z,1006.76
2019-05-20T02:10:34.203Z,1006.76
2019-05-20T02:11:34.225Z,1006.78
2019-05-20T02:12:34.248Z,1006.77
2019-05-20T02:13:34.266Z,1006.77
2019-05-20T02:14:34.292Z,1006.75
2019-05-20T02:15:34.316Z,1006.78
2019-05-20T02:16:34.334Z,1006.79
2019-05-20T02:17:34.354Z,1006.80
2019-05-20T02:18:34.386Z,1006.81
2019-05-20T02:19:34.401Z,1006.84
2019-05-20T02:20:34.421Z,1006.84
2019-05-20T02:21:34.442Z,1006.83
2019-05-20T02:22:34.468Z,1006.78
2019-05-20T02:23:34.487Z,1006.78
2019-05-20T02:24:34.513Z,1006.74
2019-05-20T02:25:34.529Z,1006.77
2019-05-20T02:26:34.568Z,1006.77
2019-05-20T02:27:34.610Z,1006.83
2019-05-20T02:28:34.595Z,1006.82
2019-05-20T02:29:34.618Z,1006.86
2019-05-20T02:30:34.641Z,1006.87
2019-05-20T02:31:34.669Z,1006.92
2019-05-20T02:32:34.693Z,1006.93
2019-05-20T02:33:50.052Z,1006.95
2019-05-20T02:34:34.729Z,1006.94
2019-05-20T02:35:35.020Z,1006.95
2019-05-20T02:36:34.777Z,1006.99
2019-05-20T02:37:34.792Z,1007.00
2019-05-20T02:38:34.817Z,1007.01
2019-05-20T02:39:34.838Z,1006.96
2019-05-20T02:40:34.860Z,1007.01
2019-05-20T02:41:34.881Z,1006.99
2019-05-20T02:42:34.903Z,1006.98
2019-05-20T02:43:34.929Z,1006.98
2019-05-20T02:44:34.944Z,1007.03
2019-05-20T02:45:35.012Z,1007.06
2019-05-20T02:46:34.994Z,1007.02
2019-05-20T02:47:35.014Z,1007.01
2019-05-20T02:48:35.032Z,1007.02
2019-05-20T02:49:35.056Z,1006.98
2019-05-20T02:50:35.085Z,1007.00
2019-05-20T02:51:35.101Z,1006.95
2019-05-20T02:52:35.124Z,1006.99
2019-05-20T02:53:35.146Z,1006.95
2019-05-20T02:54:35.184Z,1006.95
2019-05-20T02:55:35.196Z,1006.97
2019-05-20T02:56:35.210Z,1006.91
2019-05-20T02:57:35.232Z,1006.88
2019-05-20T02:58:35.256Z,1006.92
2019-05-20T02:59:35.281Z,1006.91
2019-05-20T03:00:35.319Z,1006.90
2019-05-20T03:01:35.324Z,1006.83
2019-05-20T03:02:35.342Z,1006.85
2019-05-20T03:03:35.370Z,1006.89
2019-05-20T03:04:35.384Z,1006.93
2019-05-20T03:05:35.410Z,1006.88
2019-05-20T03:06:35.430Z,1006.92
2019-05-20T03:07:35.459Z,1006.95
2019-05-20T03:08:35.471Z,1006.93
2019-05-20T03:09:35.495Z,1006.87
2019-05-20T03:10:35.518Z,1006.89
2019-05-20T03:11:35.585Z,1006.88
2019-05-20T03:12:35.565Z,1006.89
2019-05-20T03:13:35.585Z,1006.85
2019-05-20T03:14:35.604Z,1006.87
2019-05-20T03:15:35.625Z,1006.88
2019-05-20T03:16:35.663Z,1006.94
2019-05-20T03:17:35.671Z,1006.98
2019-05-20T03:18:35.705Z,1007.04
2019-05-20T03:19:35.716Z,1007.00
2019-05-20T03:20:35.737Z,1006.98
2019-05-20T03:21:35.762Z,1007.03
2019-05-20T03:22:35.780Z,1007.01
2019-05-20T03:23:35.809Z,1007.04
2019-05-20T03:24:35.826Z,1007.03
2019-05-20T03:25:35.859Z,1007.07
2019-05-20T03:26:35.871Z,1007.07
2019-05-20T03:27:35.892Z,1007.11
2019-05-20T03:28:35.923Z,1007.15
2019-05-20T03:29:35.935Z,1007.12
2019-05-20T03:30:35.972Z,1007.20
2019-05-20T03:31:36.016Z,1007.18
2019-05-20T03:32:36.008Z,1007.22
2019-05-20T03:33:36.062Z,1007.20
2019-05-20T03:34:46.711Z,1007.21
2019-05-20T03:35:36.072Z,1007.19
2019-05-20T03:36:36.104Z,1007.14
2019-05-20T03:37:36.125Z,1007.15
2019-05-20T03:38:36.136Z,1007.11
2019-05-20T03:39:36.159Z,1007.13
2019-05-20T03:40:36.182Z,1007.13
2019-05-20T03:41:36.205Z,1007.10
2019-05-20T03:42:36.258Z,1007.06
2019-05-20T03:43:36.251Z,1007.08
2019-05-20T03:44:36.281Z,1007.08
2019-05-20T03:45:36.290Z,1007.04
2019-05-20T03:46:36.318Z,1007.02
2019-05-20T03:47:36.337Z,1007.01
2019-05-20T03:48:36.359Z,1007.04
2019-05-20T03:49:36.385Z,1007.05
2019-05-20T03:50:36.405Z,1007.05
2019-05-20T03:51:36.430Z,1007.03
2019-05-20T03:52:36.463Z,1007.00
2019-05-20T03:53:36.479Z,1007.01
2019-05-20T03:54:36.495Z,1007.03
2019-05-20T03:55:36.518Z,1007.09
2019-05-20T03:56:36.539Z,1007.04
2019-05-20T03:57:36.572Z,1007.10
2019-05-20T03:58:36.583Z,1007.07
2019-05-20T03:59:36.604Z,1007.06
2019-05-20T04:00:36.627Z,1007.01
2019-05-20T04:01:36.651Z,1007.10
2019-05-20T04:02:36.678Z,1007.06
2019-05-20T04:03:36.694Z,1007.04
2019-05-20T04:04:36.725Z,1007.03
2019-05-20T04:05:36.745Z,1007.04
2019-05-20T04:06:36.776Z,1007.02
2019-05-20T04:07:36.791Z,1007.02
2019-05-20T04:08:36.809Z,1007.02
2019-05-20T04:09:36.834Z,1007.01
2019-05-20T04:10:36.856Z,1006.99
2019-05-20T04:11:36.890Z,1007.01
2019-05-20T04:12:36.899Z,1007.00
2019-05-20T04:13:36.925Z,1007.00
2019-05-20T04:14:36.943Z,1006.94
2019-05-20T04:15:36.963Z,1006.93
2019-05-20T04:16:36.989Z,1006.95
2019-05-20T04:17:37.008Z,1006.93
2019-05-20T04:18:37.032Z,1006.91
2019-05-20T04:19:37.058Z,1006.90
2019-05-20T04:20:37.077Z,1006.88
2019-05-20T04:21:37.106Z,1006.83
2019-05-20T04:22:37.121Z,1006.86
2019-05-20T04:23:37.225Z,1006.85
2019-05-20T04:24:37.170Z,1006.82
2019-05-20T04:25:37.196Z,1006.80
2019-05-20T04:26:37.210Z,1006.85
2019-05-20T04:27:37.234Z,1006.85
2019-05-20T04:28:37.259Z,1006.82
2019-05-20T04:29:37.279Z,1006.77
2019-05-20T04:30:37.300Z,1006.79
2019-05-20T04:31:37.347Z,1006.77
2019-05-20T04:32:37.349Z,1006.78
2019-05-20T04:33:37.377Z,1006.77
2019-05-20T04:34:37.391Z,1006.75
2019-05-20T04:35:37.415Z,1006.75
2019-05-20T04:36:37.438Z,1006.73
2019-05-20T04:37:37.458Z,1006.78
2019-05-20T04:38:37.481Z,1006.76
2019-05-20T04:39:37.513Z,1006.79
2019-05-20T04:40:37.539Z,1006.79
2019-05-20T04:41:37.557Z,1006.76
2019-05-20T04:42:37.572Z,1006.71
2019-05-20T04:43:37.594Z,1006.72
2019-05-20T04:44:37.618Z,1006.70
2019-05-20T04:45:37.648Z,1006.72
2019-05-20T04:46:37.665Z,1006.70
2019-05-20T04:47:37.687Z,1006.71
2019-05-20T04:48:37.713Z,1006.73
2019-05-20T04:49:37.732Z,1006.71
2019-05-20T04:50:37.763Z,1006.65
2019-05-20T04:51:37.786Z,1006.69
2019-05-20T04:52:37.802Z,1006.68
2019-05-20T04:53:37.825Z,1006.69
2019-05-20T04:54:37.847Z,1006.68
2019-05-20T04:55:37.869Z,1006.66
2019-05-20T04:56:37.891Z,1006.66
2019-05-20T04:57:37.916Z,1006.65
2019-05-20T04:58:37.939Z,1006.65
2019-05-20T04:59:37.962Z,1006.66
2019-05-20T05:00:38.000Z,1006.67
2019-05-20T05:01:38.011Z,1006.65
2019-05-20T05:02:38.030Z,1006.68
2019-05-20T05:03:38.053Z,1006.67
2019-05-20T05:04:38.075Z,1006.69
2019-05-20T05:05:38.175Z,1006.72
2019-05-20T05:06:38.121Z,1006.67
2019-05-20T05:07:38.149Z,1006.69
2019-05-20T05:08:38.172Z,1006.70
2019-05-20T05:09:38.191Z,1006.66
2019-05-20T05:10:38.219Z,1006.68
2019-05-20T05:11:38.240Z,1006.65
2019-05-20T05:12:38.258Z,1006.65
2019-05-20T05:13:38.282Z,1006.62
2019-05-20T05:14:38.307Z,1006.61
2019-05-20T05:15:38.331Z,1006.63
2019-05-20T05:16:38.352Z,1006.61
2019-05-20T05:17:38.374Z,1006.61
2019-05-20T05:18:38.398Z,1006.60
2019-05-20T05:19:38.421Z,1006.54
2019-05-20T05:20:38.442Z,1006.57
2019-05-20T05:21:38.466Z,1006.55
2019-05-20T05:22:38.487Z,1006.51
2019-05-20T05:23:38.512Z,1006.54
2019-05-20T05:24:38.538Z,1006.53
2019-05-20T05:25:38.560Z,1006.51
2019-05-20T05:26:38.616Z,1006.47
2019-05-20T05:27:38.612Z,1006.53
2019-05-20T05:28:38.626Z,1006.46
2019-05-20T05:29:38.655Z,1006.48
2019-05-20T05:30:38.683Z,1006.50
2019-05-20T05:31:38.696Z,1006.46
2019-05-20T05:32:38.718Z,1006.47
2019-05-20T05:33:38.746Z,1006.50
2019-05-20T05:34:38.773Z,1006.46
2019-05-20T05:35:52.380Z,1006.48
2019-05-20T05:36:38.811Z,1006.59
2019-05-20T05:37:38.859Z,1006.57
2019-05-20T05:38:38.856Z,1006.52
2019-05-20T05:39:38.884Z,1006.60
2019-05-20T05:40:38.903Z,1006.55
2019-05-20T05:41:38.926Z,1006.51
2019-05-20T05:42:38.953Z,1006.50
2019-05-20T05:43:38.974Z,1006.45
2019-05-20T05:44:39.015Z,1006.43
2019-05-20T05:45:39.327Z,1006.45
2019-05-20T05:46:39.044Z,1006.47
2019-05-20T05:47:39.065Z,1006.46
2019-05-20T05:48:39.088Z,1006.45
2019-05-20T05:49:39.114Z,1006.43
2019-05-20T05:50:39.153Z,1006.37
2019-05-20T05:51:39.157Z,1006.37
2019-05-20T05:52:39.187Z,1006.35
2019-05-20T05:53:39.208Z,1006.29
2019-05-20T05:54:39.229Z,1006.24
2019-05-20T05:55:39.260Z,1006.25
2019-05-20T05:56:39.272Z,1006.20
2019-05-20T05:57:39.300Z,1006.20
2019-05-20T05:58:39.319Z,1006.13
2019-05-20T05:59:39.345Z,1006.14
2019-05-20T06:00:39.478Z,1006.04
2019-05-20T06:01:39.390Z,1006.03
2019-05-20T06:02:39.413Z,1006.02
2019-05-20T06:03:39.437Z,1005.98
2019-05-20T06:04:39.462Z,1005.91
2019-05-20T06:05:39.482Z,1005.92
2019-05-20T06:06:39.507Z,1005.89
2019-05-20T06:07:39.536Z,1005.88
2019-05-20T06:08:39.567Z,1005.85
2019-05-20T06:09:39.580Z,1005.83
2019-05-20T06:10:39.599Z,1005.79
2019-05-20T06:11:39.624Z,1005.83
2019-05-20T06:12:39.643Z,1005.79
2019-05-20T06:13:39.668Z,1005.75
2019-05-20T06:14:39.692Z,1005.74
2019-05-20T06:15:39.719Z,1005.73
2019-05-20T06:16:39.738Z,1005.71
2019-05-20T06:17:39.763Z,1005.77
2019-05-20T06:18:39.819Z,1005.71
2019-05-20T06:19:39.809Z,1005.78
2019-05-20T06:20:39.836Z,1005.71
2019-05-20T06:21:39.858Z,1005.69
2019-05-20T06:22:39.895Z,1005.69
2019-05-20T06:23:39.903Z,1005.66
2019-05-20T06:24:39.924Z,1005.70
2019-05-20T06:25:39.949Z,1005.67
2019-05-20T06:26:39.970Z,1005.69
2019-05-20T06:27:39.999Z,1005.71
2019-05-20T06:28:40.040Z,1005.63
2019-05-20T06:29:40.044Z,1005.66
2019-05-20T06:30:40.066Z,1005.59
2019-05-20T06:31:40.090Z,1005.53
2019-05-20T06:32:40.116Z,1005.52
2019-05-20T06:33:40.142Z,1005.46
2019-05-20T06:34:42.537Z,1005.48
2019-05-20T06:35:40.183Z,1005.49
2019-05-20T06:36:40.206Z,1005.49
2019-05-20T06:37:40.231Z,1005.45
2019-05-20T06:38:40.250Z,1005.47
2019-05-20T06:39:40.278Z,1005.51
2019-05-20T06:40:40.308Z,1005.49
2019-05-20T06:41:40.327Z,1005.50
2019-05-20T06:42:40.347Z,1005.49
2019-05-20T06:43:40.379Z,1005.50
2019-05-20T06:44:52.100Z,1005.48
2019-05-20T06:45:40.419Z,1005.43
2019-05-20T06:46:40.441Z,1005.40
2019-05-20T06:47:40.463Z,1005.42
2019-05-20T06:48:40.485Z,1005.43
2019-05-20T06:49:40.508Z,1005.43
2019-05-20T06:50:40.539Z,1005.42
2019-05-20T06:51:40.559Z,1005.44
2019-05-20T06:52:40.579Z,1005.46
2019-05-20T06:53:40.602Z,1005.43
2019-05-20T06:54:40.653Z,1005.39
2019-05-20T06:55:40.655Z,1005.42
2019-05-20T06:56:40.829Z,1005.36
2019-05-20T06:57:40.697Z,1005.37
2019-05-20T06:58:40.722Z,1005.32
2019-05-20T06:59:40.746Z,1005.36
2019-05-20T07:00:40.768Z,1005.34
2019-05-20T07:01:40.792Z,1005.35
2019-05-20T07:02:40.821Z,1005.32
2019-05-20T07:03:40.838Z,1005.30
2019-05-20T07:04:40.861Z,1005.35
2019-05-20T07:05:40.884Z,1005.32
2019-05-20T07:06:46.888Z,1005.33
2019-05-20T07:07:40.937Z,1005.31
2019-05-20T07:08:40.953Z,1005.31
2019-05-20T07:09:40.982Z,1005.31
2019-05-20T07:10:41.002Z,1005.29
2019-05-20T07:11:51.930Z,1005.26
2019-05-20T07:12:41.935Z,1005.28
2019-05-20T07:13:41.074Z,1005.29
2019-05-20T07:14:41.097Z,1005.24
2019-05-20T07:15:41.123Z,1005.29
2019-05-20T07:16:41.144Z,1005.27
2019-05-20T07:17:41.175Z,1005.27
2019-05-20T07:18:41.191Z,1005.28
2019-05-20T07:19:41.217Z,1005.24
2019-05-20T07:20:41.240Z,1005.24
2019-05-20T07:21:41.267Z,1005.22
2019-05-20T07:22:55.368Z,1005.19
2019-05-20T07:23:41.315Z,1005.17
2019-05-20T07:24:41.335Z,1005.18
2019-05-20T07:25:41.372Z,1005.14
2019-05-20T07:26:41.382Z,1005.13
2019-05-20T07:27:41.411Z,1005.14
2019-05-20T07:28:41.427Z,1005.17
2019-05-20T07:29:41.461Z,1005.15
2019-05-20T07:30:41.483Z,1005.15
2019-05-20T07:31:41.524Z,1005.16
2019-05-20T07:32:41.519Z,1005.15
2019-05-20T07:33:41.544Z,1005.14
2019-05-20T07:34:41.574Z,1005.08
2019-05-20T07:35:41.600Z,1005.07
2019-05-20T07:36:41.616Z,1005.05
2019-05-20T07:37:41.664Z,1005.04
2019-05-20T07:38:41.743Z,1005.05
2019-05-20T07:39:41.700Z,1005.03
2019-05-20T07:40:41.710Z,1005.00
2019-05-20T07:41:42.046Z,1005.00
2019-05-20T07:42:41.757Z,1005.04
2019-05-20T07:43:41.781Z,1005.00
2019-05-20T07:44:41.802Z,1005.03
2019-05-20T07:45:41.827Z,1004.99
2019-05-20T07:46:41.855Z,1004.99
2019-05-20T07:47:41.879Z,1005.00
2019-05-20T07:48:41.929Z,1005.00
2019-05-20T07:49:41.923Z,1005.01
2019-05-20T07:50:41.950Z,1004.98
2019-05-20T07:51:41.970Z,1004.96
2019-05-20T07:52:41.996Z,1005.00
2019-05-20T07:53:42.021Z,1004.99
2019-05-20T07:54:42.048Z,1005.00
2019-05-20T07:55:42.068Z,1004.96
2019-05-20T07:56:42.089Z,1004.92
2019-05-20T07:57:42.114Z,1004.92
2019-05-20T07:58:42.154Z,1004.87
2019-05-20T07:59:42.163Z,1004.85
2019-05-20T08:00:42.187Z,1004.80
2019-05-20T08:01:42.209Z,1004.78
2019-05-20T08:02:42.232Z,1004.79
2019-05-20T08:03:42.256Z,1004.75
2019-05-20T08:04:42.289Z,1004.69
2019-05-20T08:05:42.303Z,1004.64
2019-05-20T08:06:42.332Z,1004.65
2019-05-20T08:07:51.919Z,1004.61
2019-05-20T08:08:42.378Z,1004.64
2019-05-20T08:09:45.995Z,1004.65
2019-05-20T08:10:42.463Z,1004.63
2019-05-20T08:11:42.446Z,1004.66
2019-05-20T08:12:42.470Z,1004.65
2019-05-20T08:13:42.496Z,1004.65
2019-05-20T08:14:42.519Z,1004.69
2019-05-20T08:15:42.542Z,1004.64
2019-05-20T08:16:42.567Z,1004.62
2019-05-20T08:17:42.589Z,1004.63
2019-05-20T08:18:42.618Z,1004.61
2019-05-20T08:19:42.636Z,1004.57
2019-05-20T08:20:42.665Z,1004.54
2019-05-20T08:21:42.683Z,1004.53
2019-05-20T08:22:42.715Z,1004.47
2019-05-20T08:23:42.737Z,1004.43
2019-05-20T08:24:42.756Z,1004.43
2019-05-20T08:25:42.778Z,1004.37
2019-05-20T08:26:42.824Z,1004.37
2019-05-20T08:27:42.825Z,1004.30
2019-05-20T08:28:42.852Z,1004.29
2019-05-20T08:29:42.876Z,1004.24
2019-05-20T08:30:42.904Z,1004.25
2019-05-20T08:31:42.923Z,1004.19
2019-05-20T08:32:42.959Z,1004.20
2019-05-20T08:33:42.985Z,1004.20
2019-05-20T08:34:43.007Z,1004.20
2019-05-20T08:35:43.059Z,1004.21
2019-05-20T08:36:43.054Z,1004.20
2019-05-20T08:37:45.870Z,1004.17
2019-05-20T08:38:43.097Z,1004.23
2019-05-20T08:39:43.126Z,1004.23
2019-05-20T08:40:43.143Z,1004.20
2019-05-20T08:41:43.172Z,1004.21
2019-05-20T08:42:43.191Z,1004.25
2019-05-20T08:43:43.258Z,1004.21
2019-05-20T08:44:43.243Z,1004.25
2019-05-20T08:45:43.258Z,1004.20
2019-05-20T08:46:43.287Z,1004.24
2019-05-20T08:47:43.318Z,1004.21
2019-05-20T08:48:43.331Z,1004.19
2019-05-20T08:49:43.929Z,1004.18
2019-05-20T08:50:43.381Z,1004.15
2019-05-20T08:51:43.406Z,1004.15
2019-05-20T08:52:43.427Z,1004.16
2019-05-20T08:53:43.449Z,1004.14
2019-05-20T08:54:43.475Z,1004.12
2019-05-20T08:55:43.501Z,1004.14
2019-05-20T08:56:43.522Z,1004.11
2019-05-20T08:57:43.581Z,1004.11
2019-05-20T08:58:43.568Z,1004.15
2019-05-20T08:59:43.591Z,1004.16
2019-05-20T09:00:43.630Z,1004.18
2019-05-20T09:01:43.639Z,1004.20
2019-05-20T09:02:43.665Z,1004.20
2019-05-20T09:03:43.687Z,1004.19
2019-05-20T09:04:43.708Z,1004.18
2019-05-20T09:05:43.734Z,1004.13
2019-05-20T09:06:43.765Z,1004.16
2019-05-20T09:07:43.788Z,1004.13
2019-05-20T09:08:43.861Z,1004.13
2019-05-20T09:09:43.837Z,1004.12
2019-05-20T09:10:43.851Z,1004.09
2019-05-20T09:11:47.526Z,1004.06
2019-05-20T09:12:44.088Z,1004.01
2019-05-20T09:13:43.941Z,1004.05
2019-05-20T09:14:43.959Z,1004.03
2019-05-20T09:15:45.491Z,1004.07
2019-05-20T09:16:43.993Z,1004.11
2019-05-20T09:17:44.022Z,1004.12
2019-05-20T09:18:44.044Z,1004.11
2019-05-20T09:19:46.927Z,1004.12
2019-05-20T09:20:44.162Z,1004.12
2019-05-20T09:21:44.122Z,1004.09
2019-05-20T09:22:44.146Z,1004.04
2019-05-20T09:23:44.253Z,1004.07
2019-05-20T09:24:44.247Z,1004.05
2019-05-20T09:25:44.228Z,1004.01
2019-05-20T09:26:44.244Z,1003.97
2019-05-20T09:27:44.259Z,1003.92
2019-05-20T09:28:44.279Z,1003.96
2019-05-20T09:29:44.302Z,1003.99
2019-05-20T09:30:44.322Z,1004.01
2019-05-20T09:31:44.361Z,1004.01
2019-05-20T09:32:44.379Z,1004.00
2019-05-20T09:33:44.404Z,1004.04
2019-05-20T09:34:44.417Z,1004.03
2019-05-20T09:35:44.502Z,1004.01
2019-05-20T09:36:44.471Z,1004.04
2019-05-20T09:37:44.490Z,1004.04
2019-05-20T09:38:44.530Z,1004.08
2019-05-20T09:39:44.536Z,1004.07
2019-05-20T09:40:44.561Z,1004.08
2019-05-20T09:41:44.585Z,1004.05
2019-05-20T09:42:44.612Z,1004.11
2019-05-20T09:43:44.638Z,1004.15
2019-05-20T09:44:44.736Z,1004.16
2019-05-20T09:45:44.687Z,1004.12
2019-05-20T09:46:44.703Z,1004.21
2019-05-20T09:47:44.724Z,1004.14
2019-05-20T09:48:44.749Z,1004.22
2019-05-20T09:49:44.773Z,1004.20
2019-05-20T09:50:44.806Z,1004.26
2019-05-20T09:51:44.825Z,1004.26
2019-05-20T09:52:44.844Z,1004.32
2019-05-20T09:53:44.864Z,1004.35
2019-05-20T09:54:45.605Z,1004.35
2019-05-20T09:55:44.912Z,1004.37
2019-05-20T09:56:44.933Z,1004.37
2019-05-20T09:57:44.958Z,1004.36
2019-05-20T09:58:45.000Z,1004.38
2019-05-20T09:59:45.035Z,1004.34
2019-05-20T10:00:45.050Z,1004.33
2019-05-20T10:01:45.048Z,1004.26
2019-05-20T10:02:45.102Z,1004.22
2019-05-20T10:03:45.131Z,1004.26
2019-05-20T10:04:45.135Z,1004.23
2019-05-20T10:05:45.142Z,1004.22
2019-05-20T10:06:45.174Z,1004.24
2019-05-20T10:07:45.194Z,1004.25
2019-05-20T10:08:45.485Z,1004.24
2019-05-20T10:09:45.242Z,1004.30
2019-05-20T10:10:45.256Z,1004.36
2019-05-20T10:11:45.282Z,1004.35
2019-05-20T10:12:47.083Z,1004.35
2019-05-20T10:13:45.327Z,1004.37
2019-05-20T10:14:45.350Z,1004.38
2019-05-20T10:15:45.383Z,1004.39
2019-05-20T10:16:45.397Z,1004.42
2019-05-20T10:17:45.417Z,1004.42
2019-05-20T10:18:45.447Z,1004.38
2019-05-20T10:19:45.498Z,1004.42
2019-05-20T10:20:45.498Z,1004.42
2019-05-20T10:21:45.509Z,1004.41
2019-05-20T10:22:45.532Z,1004.39
2019-05-20T10:23:45.554Z,1004.39
2019-05-20T10:24:45.678Z,1004.39
2019-05-20T10:25:45.600Z,1004.40
2019-05-20T10:26:45.622Z,1004.44
2019-05-20T10:27:45.658Z,1004.41
2019-05-20T10:28:47.388Z,1004.48
2019-05-20T10:29:45.698Z,1004.54
2019-05-20T10:30:45.720Z,1004.51
2019-05-20T10:31:45.737Z,1004.55
2019-05-20T10:32:45.758Z,1004.55
2019-05-20T10:33:45.784Z,1004.59
2019-05-20T10:34:45.808Z,1004.58
2019-05-20T10:35:45.828Z,1004.64
2019-05-20T10:36:45.848Z,1004.66
2019-05-20T10:37:45.874Z,1004.73
2019-05-20T10:38:57.782Z,1004.74
2019-05-20T10:39:45.917Z,1004.83
2019-05-20T10:40:45.942Z,1004.81
2019-05-20T10:41:45.964Z,1004.89
2019-05-20T10:42:45.995Z,1004.87
2019-05-20T10:43:46.007Z,1004.91
2019-05-20T10:44:46.030Z,1004.95
2019-05-20T10:45:46.051Z,1004.89
2019-05-20T10:46:46.074Z,1004.95
2019-05-20T10:47:46.097Z,1004.91
2019-05-20T10:48:46.118Z,1004.99
2019-05-20T10:49:46.143Z,1004.97
2019-05-20T10:50:46.183Z,1005.00
2019-05-20T10:51:46.186Z,1004.99
2019-05-20T10:52:46.209Z,1005.06
2019-05-20T10:53:46.326Z,1005.07
2019-05-20T10:54:46.260Z,1005.07
2019-05-20T10:55:46.276Z,1005.14
2019-05-20T10:56:46.300Z,1005.13
2019-05-20T10:57:46.330Z,1005.16
2019-05-20T10:58:46.344Z,1005.29
2019-05-20T10:59:46.369Z,1005.29
2019-05-20T11:01:01.790Z,1005.28
2019-05-20T11:01:46.409Z,1005.37
2019-05-20T11:02:46.445Z,1005.40
2019-05-20T11:03:46.457Z,1005.42
2019-05-20T11:04:46.522Z,1005.42
2019-05-20T11:05:46.497Z,1005.43
2019-05-20T11:06:46.559Z,1005.43
2019-05-20T11:07:46.561Z,1005.39
2019-05-20T11:08:46.567Z,1005.43
2019-05-20T11:09:46.588Z,1005.38
2019-05-20T11:10:46.619Z,1005.42
2019-05-20T11:11:46.631Z,1005.42
2019-05-20T11:12:46.653Z,1005.42
2019-05-20T11:13:46.679Z,1005.44
2019-05-20T11:14:46.730Z,1005.45
2019-05-20T11:15:46.721Z,1005.43
2019-05-20T11:16:46.740Z,1005.44
2019-05-20T11:17:46.765Z,1005.40
2019-05-20T11:18:46.787Z,1005.38
2019-05-20T11:19:46.816Z,1005.37
2019-05-20T11:20:46.863Z,1005.38
2019-05-20T11:21:46.886Z,1005.45
2019-05-20T11:22:46.913Z,1005.42
2019-05-20T11:23:46.915Z,1005.51
2019-05-20T11:24:47.164Z,1005.52
2019-05-20T11:25:46.957Z,1005.58
2019-05-20T11:26:47.038Z,1005.62
2019-05-20T11:27:46.984Z,1005.62
2019-05-20T11:28:47.005Z,1005.67
2019-05-20T11:29:47.050Z,1005.69
2019-05-20T11:30:47.057Z,1005.69
2019-05-20T11:31:47.074Z,1005.63
2019-05-20T11:32:47.750Z,1005.58
2019-05-20T11:33:47.117Z,1005.58
2019-05-20T11:34:47.298Z,1005.57
2019-05-20T11:35:47.161Z,1005.55
2019-05-20T11:36:47.185Z,1005.56
2019-05-20T11:37:47.218Z,1005.59
2019-05-20T11:38:47.226Z,1005.63
2019-05-20T11:39:47.251Z,1005.60
2019-05-20T11:40:47.275Z,1005.65
2019-05-20T11:41:53.436Z,1005.63
2019-05-20T11:42:47.316Z,1005.62
2019-05-20T11:43:47.337Z,1005.69
2019-05-20T11:44:47.436Z,1005.68
2019-05-20T11:45:47.384Z,1005.72
2019-05-20T11:46:47.405Z,1005.74
2019-05-20T11:47:47.423Z,1005.81
2019-05-20T11:48:47.446Z,1005.87
2019-05-20T11:49:47.474Z,1005.95
2019-05-20T11:50:47.489Z,1006.03
2019-05-20T11:51:47.513Z,1006.07
2019-05-20T11:52:47.536Z,1006.16
2019-05-20T11:53:47.553Z,1006.16
2019-05-20T11:54:47.718Z,1006.20
2019-05-20T11:55:47.609Z,1006.27
2019-05-20T11:56:47.620Z,1006.24
2019-05-20T11:57:47.649Z,1006.25
2019-05-20T11:58:47.662Z,1006.30
2019-05-20T11:59:47.700Z,1006.32
2019-05-20T12:00:47.707Z,1006.29
2019-05-20T12:01:48.003Z,1006.27
2019-05-20T12:02:47.750Z,1006.29
2019-05-20T12:03:47.957Z,1006.26
2019-05-20T12:04:47.814Z,1006.26
2019-05-20T12:05:47.841Z,1006.27